createdAt,value
2022-09-22T00:01:02.034Z,9.93
2022-09-22T00:04:55.479Z,9.80
2022-09-22T00:06:48.235Z,15.73
2022-09-22T00:08:06.211Z,11.95
2022-09-22T00:09:23.614Z,13.80
2022-09-22T00:10:30.753Z,12.88
2022-09-22T00:11:46.981Z,21.10
2022-09-22T00:12:56.361Z,14.93
2022-09-22T00:14:10.648Z,25.80
2022-09-22T00:15:15.479Z,16.38
2022-09-22T00:16:37.022Z,14.57
2022-09-22T00:17:41.565Z,12.88
2022-09-22T00:18:50.410Z,16.52
2022-09-22T00:19:54.514Z,10.48
2022-09-22T00:21:00.202Z,10.82
2022-09-22T00:22:15.290Z,9.73
2022-09-22T00:23:33.197Z,11.35
2022-09-22T00:24:46.137Z,9.65
2022-09-22T00:26:00.322Z,9.35
2022-09-22T00:28:00.586Z,8.60
2022-09-22T00:30:42.751Z,11.63
2022-09-22T00:31:53.254Z,12.07
2022-09-22T00:32:59.691Z,11.55
2022-09-22T00:34:22.897Z,12.20
2022-09-22T00:36:03.788Z,11.52
2022-09-22T00:39:45.651Z,9.85
2022-09-22T00:41:43.226Z,10.27
2022-09-22T00:43:08.377Z,15.60
2022-09-22T00:44:49.946Z,12.30
2022-09-22T00:48:44.841Z,8.98
2022-09-22T00:50:24.217Z,8.32
2022-09-22T00:51:41.077Z,10.85
2022-09-22T00:52:53.013Z,10.27
2022-09-22T00:54:15.054Z,10.00
2022-09-22T00:55:27.228Z,9.38
2022-09-22T01:03:05.155Z,6.60
2022-09-22T01:04:11.196Z,8.25
2022-09-22T01:05:25.149Z,8.07
2022-09-22T01:06:38.221Z,9.32
2022-09-22T01:07:55.341Z,8.07
2022-09-22T01:09:26.868Z,9.23
2022-09-22T01:10:31.468Z,8.68
2022-09-22T01:12:01.282Z,7.60
2022-09-22T01:13:30.724Z,8.38
2022-09-22T01:17:27.428Z,8.90
2022-09-22T01:18:44.587Z,9.10
2022-09-22T01:20:41.224Z,7.47
2022-09-22T01:22:00.629Z,8.45
2022-09-22T01:23:45.219Z,7.85
2022-09-22T01:26:05.020Z,9.95
2022-09-22T01:28:00.470Z,7.43
2022-09-22T01:29:28.890Z,8.02
2022-09-22T01:30:50.632Z,7.72
2022-09-22T01:32:01.245Z,6.38
2022-09-22T01:33:40.917Z,7.40
2022-09-22T01:34:55.621Z,6.65
2022-09-22T01:37:10.588Z,5.40
2022-09-22T02:13:14.119Z,7.78
2022-09-22T02:26:33.762Z,10.10
2022-09-22T02:32:57.785Z,11.32
2022-09-22T02:34:14.773Z,12.00
2022-09-22T02:39:58.593Z,13.40
2022-09-22T02:40:46.588Z,11.45
2022-09-22T02:42:27.087Z,10.55
2022-09-22T02:43:41.184Z,11.15
2022-09-22T02:44:51.279Z,13.35
2022-09-22T02:46:51.933Z,12.50
2022-09-22T02:48:01.483Z,12.35
2022-09-22T02:52:45.789Z,13.18
2022-09-22T02:54:55.308Z,13.68
2022-09-22T02:58:00.690Z,14.25
2022-09-22T02:59:10.002Z,15.00
2022-09-22T03:00:16.610Z,13.75
2022-09-22T03:01:25.347Z,14.82
2022-09-22T03:02:45.760Z,14.93
2022-09-22T03:04:44.197Z,15.35
2022-09-22T03:05:49.672Z,15.05
2022-09-22T03:06:56.785Z,15.93
2022-09-22T03:08:11.527Z,16.50
2022-09-22T03:11:57.763Z,16.85
2022-09-22T03:13:15.951Z,20.10
2022-09-22T03:14:45.698Z,26.98
2022-09-22T03:15:50.162Z,33.88
2022-09-22T03:17:01.803Z,32.95
2022-09-22T03:18:12.716Z,52.90
2022-09-22T03:19:18.116Z,67.35
2022-09-22T03:20:26.365Z,67.15
2022-09-22T03:21:40.866Z,69.20
2022-09-22T03:24:10.494Z,61.55
2022-09-22T03:25:23.536Z,61.00
2022-09-22T03:26:35.380Z,42.78
2022-09-22T03:27:42.299Z,42.90
2022-09-22T03:29:02.944Z,42.78
2022-09-22T03:32:09.013Z,28.35
2022-09-22T03:33:12.962Z,29.67
2022-09-22T03:35:10.637Z,25.25
2022-09-22T03:36:43.547Z,25.10
2022-09-22T03:39:05.644Z,27.20
2022-09-22T03:40:10.776Z,28.15
2022-09-22T03:41:43.633Z,26.83
2022-09-22T03:42:51.525Z,27.23
2022-09-22T03:44:02.247Z,35.97
2022-09-22T03:45:10.518Z,40.63
2022-09-22T03:46:17.891Z,38.65
2022-09-22T03:47:43.490Z,38.78
2022-09-22T03:48:50.824Z,40.40
2022-09-22T03:49:57.036Z,33.70
2022-09-22T03:51:01.132Z,31.77
2022-09-22T03:52:26.449Z,28.42
2022-09-22T03:56:33.984Z,36.83
2022-09-22T03:57:41.358Z,30.05
2022-09-22T03:58:47.114Z,26.83
2022-09-22T03:59:51.486Z,28.60
2022-09-22T04:00:57.115Z,33.08
2022-09-22T04:02:15.152Z,32.92
2022-09-22T04:03:25.416Z,32.33
2022-09-22T04:04:40.156Z,33.97
2022-09-22T04:05:50.341Z,31.17
2022-09-22T04:06:55.661Z,31.30
2022-09-22T04:08:02.486Z,30.58
2022-09-22T04:09:10.840Z,32.47
2022-09-22T04:10:19.296Z,32.50
2022-09-22T04:11:24.188Z,30.90
2022-09-22T04:12:32.231Z,24.42
2022-09-22T04:13:36.316Z,25.92
2022-09-22T04:14:42.121Z,26.60
2022-09-22T04:15:47.138Z,31.92
2022-09-22T04:16:54.633Z,28.83
2022-09-22T04:19:47.450Z,22.70
2022-09-22T04:21:11.341Z,23.23
2022-09-22T04:22:15.531Z,26.10
2022-09-22T04:23:21.027Z,31.13
2022-09-22T04:24:25.209Z,28.02
2022-09-22T04:25:32.730Z,26.60
2022-09-22T04:26:36.479Z,25.45
2022-09-22T04:27:41.572Z,25.25
2022-09-22T04:28:45.430Z,30.27
2022-09-22T04:29:50.170Z,31.98
2022-09-22T04:30:53.943Z,24.42
2022-09-22T04:32:01.723Z,27.48
2022-09-22T04:33:08.218Z,40.45
2022-09-22T04:34:11.862Z,30.67
2022-09-22T04:35:19.111Z,25.25
2022-09-22T04:36:24.081Z,25.42
2022-09-22T04:37:28.236Z,22.58
2022-09-22T04:38:33.176Z,24.00
2022-09-22T04:39:37.067Z,22.50
2022-09-22T04:40:41.743Z,21.10
2022-09-22T04:41:45.432Z,19.95
2022-09-22T04:42:53.152Z,21.88
2022-09-22T04:43:56.681Z,22.42
2022-09-22T04:45:02.371Z,26.65
2022-09-22T04:46:06.539Z,21.60
2022-09-22T04:47:11.106Z,18.23
2022-09-22T04:48:16.041Z,18.77
2022-09-22T04:49:20.841Z,18.92
2022-09-22T04:50:25.399Z,19.45
2022-09-22T04:51:30.546Z,19.95
2022-09-22T04:52:34.291Z,18.45
2022-09-22T04:53:39.292Z,18.52
2022-09-22T04:54:43.072Z,20.20
2022-09-22T04:55:47.360Z,21.17
2022-09-22T04:56:50.752Z,17.88
2022-09-22T04:57:59.896Z,17.90
2022-09-22T04:59:04.646Z,18.73
2022-09-22T05:00:09.595Z,18.63
2022-09-22T05:01:14.316Z,19.95
2022-09-22T05:02:18.032Z,18.63
2022-09-22T05:03:23.929Z,17.55
2022-09-22T05:04:34.827Z,18.35
2022-09-22T05:05:39.780Z,17.83
2022-09-22T05:06:43.642Z,17.65
2022-09-22T05:07:49.775Z,17.85
2022-09-22T05:08:53.421Z,17.92
2022-09-22T05:09:58.413Z,19.15
2022-09-22T05:11:02.334Z,20.02
2022-09-22T05:12:07.156Z,19.23
2022-09-22T05:13:12.138Z,19.48
2022-09-22T05:14:17.517Z,18.80
2022-09-22T05:15:22.176Z,16.83
2022-09-22T05:16:27.064Z,19.58
2022-09-22T05:17:30.495Z,19.40
2022-09-22T05:18:36.693Z,18.15
2022-09-22T05:19:39.867Z,18.60
2022-09-22T05:20:46.180Z,19.45
2022-09-22T05:21:49.505Z,17.60
2022-09-22T05:22:54.968Z,17.70
2022-09-22T05:23:58.470Z,17.55
2022-09-22T05:25:03.004Z,18.05
2022-09-22T05:26:07.125Z,19.65
2022-09-22T05:27:11.804Z,18.23
2022-09-22T05:28:15.501Z,19.15
2022-09-22T05:29:23.481Z,18.38
2022-09-22T05:30:29.351Z,18.27
2022-09-22T05:31:34.320Z,23.23
2022-09-22T05:32:38.111Z,21.45
2022-09-22T05:33:44.107Z,21.25
2022-09-22T05:34:47.663Z,19.73
2022-09-22T05:35:52.536Z,18.40
2022-09-22T05:36:56.288Z,16.33
2022-09-22T05:38:01.297Z,22.10
2022-09-22T05:39:05.302Z,17.10
2022-09-22T05:40:14.156Z,17.02
2022-09-22T05:41:19.089Z,21.80
2022-09-22T05:42:24.298Z,21.60
2022-09-22T05:43:29.647Z,19.10
2022-09-22T05:44:44.517Z,16.50
2022-09-22T05:45:50.144Z,15.27
2022-09-22T05:46:53.809Z,16.27
2022-09-22T05:47:58.831Z,15.90
2022-09-22T05:49:04.130Z,16.40
2022-09-22T05:50:10.096Z,15.60
2022-09-22T05:51:15.010Z,16.80
2022-09-22T05:52:18.618Z,15.40
2022-09-22T05:53:23.252Z,14.77
2022-09-22T05:54:27.259Z,17.35
2022-09-22T05:55:32.213Z,15.00
2022-09-22T05:56:36.087Z,15.82
2022-09-22T05:57:41.238Z,14.30
2022-09-22T05:58:49.196Z,16.48
2022-09-22T05:59:53.179Z,14.43
2022-09-22T06:00:59.151Z,14.88
2022-09-22T06:02:13.324Z,14.32
2022-09-22T06:03:28.487Z,15.55
2022-09-22T06:04:33.407Z,14.30
2022-09-22T06:05:39.475Z,14.93
2022-09-22T06:06:50.586Z,14.73
2022-09-22T06:08:01.125Z,13.93
2022-09-22T06:09:05.243Z,15.38
2022-09-22T06:10:12.097Z,14.75
2022-09-22T06:11:16.412Z,13.57
2022-09-22T06:12:19.872Z,15.07
2022-09-22T06:13:24.543Z,17.80
2022-09-22T06:14:35.206Z,18.52
2022-09-22T06:15:40.504Z,16.17
2022-09-22T06:16:44.116Z,14.32
2022-09-22T06:17:48.388Z,14.30
2022-09-22T06:18:51.510Z,14.75
2022-09-22T06:19:57.356Z,13.07
2022-09-22T06:21:01.810Z,15.20
2022-09-22T06:22:05.453Z,12.98
2022-09-22T06:23:10.153Z,20.88
2022-09-22T06:24:13.438Z,14.73
2022-09-22T06:25:17.946Z,14.77
2022-09-22T06:26:22.306Z,15.10
2022-09-22T06:27:25.589Z,12.50
2022-09-22T06:28:29.803Z,13.55
2022-09-22T06:29:33.167Z,11.40
2022-09-22T06:30:40.295Z,13.23
2022-09-22T06:31:43.637Z,12.68
2022-09-22T06:32:55.645Z,12.45
2022-09-22T06:33:59.059Z,14.50
2022-09-22T06:35:04.902Z,13.75
2022-09-22T06:36:08.518Z,14.43
2022-09-22T06:37:13.757Z,12.25
2022-09-22T06:38:18.135Z,13.98
2022-09-22T06:39:25.518Z,12.57
2022-09-22T06:40:28.741Z,14.23
2022-09-22T06:41:34.311Z,12.20
2022-09-22T06:42:38.666Z,12.02
2022-09-22T06:43:43.595Z,12.95
2022-09-22T06:44:48.371Z,12.15
2022-09-22T06:45:52.427Z,13.95
2022-09-22T06:46:56.580Z,14.60
2022-09-22T06:48:01.045Z,11.02
2022-09-22T06:49:05.279Z,13.27
2022-09-22T06:50:10.318Z,12.07
2022-09-22T06:51:14.683Z,13.38
2022-09-22T06:52:17.753Z,12.25
2022-09-22T06:53:25.707Z,14.18
2022-09-22T06:54:30.735Z,13.68
2022-09-22T06:55:35.643Z,12.05
2022-09-22T06:56:42.904Z,12.23
2022-09-22T06:57:47.398Z,14.45
2022-09-22T06:59:08.886Z,13.25
2022-09-22T07:00:15.516Z,13.52
2022-09-22T07:01:19.584Z,12.60
2022-09-22T07:02:28.580Z,10.65
2022-09-22T07:03:32.585Z,11.55
2022-09-22T07:04:36.823Z,12.98
2022-09-22T07:05:43.352Z,11.80
2022-09-22T07:06:50.655Z,12.57
2022-09-22T07:07:53.838Z,12.38
2022-09-22T07:08:58.339Z,12.02
2022-09-22T07:10:02.486Z,12.38
2022-09-22T07:11:09.295Z,11.13
2022-09-22T07:12:13.712Z,10.70
2022-09-22T07:13:17.951Z,11.32
2022-09-22T07:14:22.711Z,9.60
2022-09-22T07:15:25.971Z,10.43
2022-09-22T07:16:30.267Z,10.13
2022-09-22T07:17:36.220Z,9.38
2022-09-22T07:18:41.938Z,9.88
2022-09-22T07:19:47.327Z,9.05
2022-09-22T07:20:52.944Z,7.60
2022-09-22T07:21:58.772Z,7.90
2022-09-22T07:23:02.019Z,13.63
2022-09-22T07:24:08.688Z,12.63
2022-09-22T07:25:12.508Z,8.23
2022-09-22T07:26:18.790Z,13.85
2022-09-22T07:27:26.168Z,8.00
2022-09-22T07:28:29.965Z,8.18
2022-09-22T07:29:42.987Z,8.18
2022-09-22T07:30:48.245Z,8.40
2022-09-22T07:31:53.622Z,8.18
2022-09-22T07:32:57.666Z,11.82
2022-09-22T07:34:02.744Z,11.95
2022-09-22T07:35:08.110Z,12.07
2022-09-22T07:36:14.601Z,9.38
2022-09-22T07:37:18.858Z,10.80
2022-09-22T07:38:22.267Z,7.85
2022-09-22T07:39:26.760Z,7.07
2022-09-22T07:40:30.382Z,6.93
2022-09-22T07:41:41.951Z,6.10
2022-09-22T07:42:50.229Z,5.53
2022-09-22T07:43:56.518Z,5.95
2022-09-22T07:45:16.079Z,5.30
2022-09-22T07:46:20.427Z,5.20
2022-09-22T07:47:38.489Z,5.80
2022-09-22T07:48:47.486Z,5.60
2022-09-22T07:49:50.793Z,5.15
2022-09-22T07:51:00.448Z,5.22
2022-09-22T07:52:05.504Z,3.58
2022-09-22T07:53:10.163Z,3.30
2022-09-22T07:54:13.881Z,4.00
2022-09-22T07:55:18.342Z,4.15
2022-09-22T07:56:21.582Z,4.05
2022-09-22T07:57:25.838Z,3.65
2022-09-22T07:58:30.514Z,2.88
2022-09-22T07:59:35.270Z,3.13
2022-09-22T08:00:38.444Z,3.20
2022-09-22T08:01:44.547Z,3.20
2022-09-22T08:02:55.527Z,9.18
2022-09-22T08:03:59.675Z,5.45
2022-09-22T08:05:03.564Z,3.42
2022-09-22T08:06:11.706Z,3.28
2022-09-22T08:07:16.339Z,7.32
2022-09-22T08:08:20.954Z,2.58
2022-09-22T08:09:26.225Z,3.25
2022-09-22T08:10:29.955Z,2.95
2022-09-22T08:11:34.678Z,6.88
2022-09-22T08:12:39.421Z,4.20
2022-09-22T08:13:44.608Z,3.80
2022-09-22T08:14:48.757Z,3.40
2022-09-22T08:15:56.775Z,3.50
2022-09-22T08:17:01.249Z,3.67
2022-09-22T08:18:04.965Z,2.80
2022-09-22T08:19:12.586Z,3.03
2022-09-22T08:20:16.834Z,2.92
2022-09-22T08:21:21.153Z,3.10
2022-09-22T08:22:29.074Z,2.97
2022-09-22T08:23:33.691Z,3.50
2022-09-22T08:24:37.434Z,2.70
2022-09-22T08:25:41.716Z,2.92
2022-09-22T08:26:48.227Z,2.53
2022-09-22T08:27:52.716Z,2.83
2022-09-22T08:28:58.139Z,2.70
2022-09-22T08:30:01.370Z,2.88
2022-09-22T08:31:06.765Z,2.30
2022-09-22T08:32:10.308Z,2.90
2022-09-22T08:33:14.893Z,2.85
2022-09-22T08:34:19.240Z,3.15
2022-09-22T08:35:22.346Z,2.58
2022-09-22T08:36:28.493Z,3.15
2022-09-22T08:37:36.819Z,4.45
2022-09-22T08:38:43.228Z,4.70
2022-09-22T08:39:46.967Z,5.15
2022-09-22T08:41:04.113Z,4.55
2022-09-22T08:42:14.524Z,3.03
2022-09-22T08:43:18.403Z,3.85
2022-09-22T08:44:24.329Z,9.95
2022-09-22T08:45:32.690Z,4.00
2022-09-22T08:46:38.002Z,2.83
2022-09-22T08:48:06.683Z,2.30
2022-09-22T08:49:36.534Z,2.58
2022-09-22T08:51:05.404Z,2.40
2022-09-22T08:52:16.270Z,3.10
2022-09-22T08:53:23.654Z,2.70
2022-09-22T08:54:31.566Z,2.45
2022-09-22T08:55:35.646Z,2.90
2022-09-22T08:56:44.143Z,2.72
2022-09-22T08:58:05.396Z,2.95
2022-09-22T08:59:14.865Z,2.67
2022-09-22T09:00:20.831Z,2.80
2022-09-22T09:01:44.120Z,2.70
2022-09-22T09:02:53.289Z,2.83
2022-09-22T09:04:11.386Z,5.32
2022-09-22T09:05:45.105Z,21.00
2022-09-22T09:06:53.827Z,3.25
2022-09-22T09:08:02.766Z,1.90
2022-09-22T09:09:31.726Z,2.70
2022-09-22T09:10:45.815Z,5.22
2022-09-22T09:12:07.497Z,2.38
2022-09-22T09:13:43.547Z,2.10
2022-09-22T09:15:13.120Z,1.98
2022-09-22T09:16:32.984Z,2.40
2022-09-22T09:17:41.185Z,2.28
2022-09-22T09:18:47.534Z,2.10
2022-09-22T09:19:57.584Z,2.30
2022-09-22T09:21:03.999Z,2.15
2022-09-22T09:22:15.823Z,2.03
2022-09-22T09:23:22.363Z,5.47
2022-09-22T09:25:58.523Z,3.20
2022-09-22T09:27:09.233Z,4.30
2022-09-22T09:28:16.084Z,3.05
2022-09-22T09:29:22.906Z,2.40
2022-09-22T09:30:27.305Z,2.15
2022-09-22T09:31:34.335Z,2.25
2022-09-22T09:32:45.333Z,1.73
2022-09-22T09:33:55.925Z,2.03
2022-09-22T09:34:59.887Z,3.13
2022-09-22T09:36:17.672Z,3.30
2022-09-22T09:37:23.456Z,2.65
2022-09-22T09:38:29.079Z,2.22
2022-09-22T09:39:39.636Z,4.00
2022-09-22T09:40:44.950Z,3.40
2022-09-22T09:41:52.162Z,7.68
2022-09-22T09:43:03.349Z,3.22
2022-09-22T09:44:08.895Z,4.05
2022-09-22T09:45:14.421Z,3.20
2022-09-22T09:46:26.972Z,2.17
2022-09-22T09:47:47.854Z,5.07
2022-09-22T09:49:06.232Z,3.85
2022-09-22T09:50:11.400Z,2.20
2022-09-22T09:51:15.685Z,2.33
2022-09-22T09:52:19.219Z,2.17
2022-09-22T09:53:32.853Z,2.17
2022-09-22T09:54:38.590Z,2.75
2022-09-22T09:55:43.483Z,2.70
2022-09-22T09:57:04.477Z,4.60
2022-09-22T09:58:11.195Z,4.30
2022-09-22T09:59:33.051Z,3.25
2022-09-22T10:00:53.089Z,2.08
2022-09-22T10:01:58.176Z,2.00
2022-09-22T10:03:06.894Z,1.83
2022-09-22T10:04:30.154Z,2.45
2022-09-22T10:05:37.787Z,2.92
2022-09-22T10:06:42.738Z,3.78
2022-09-22T10:07:50.179Z,5.57
2022-09-22T10:08:55.258Z,2.67
2022-09-22T10:10:25.394Z,2.22
2022-09-22T10:11:31.541Z,1.90
2022-09-22T10:12:36.328Z,2.08
2022-09-22T10:13:57.120Z,1.75
2022-09-22T10:15:03.361Z,2.58
2022-09-22T10:16:21.404Z,3.35
2022-09-22T10:17:30.266Z,2.58
2022-09-22T10:18:36.816Z,2.00
2022-09-22T10:19:49.158Z,2.20
2022-09-22T10:21:03.076Z,1.90
2022-09-22T10:22:25.153Z,2.00
2022-09-22T10:23:29.150Z,1.90
2022-09-22T10:24:35.993Z,2.20
2022-09-22T10:25:43.189Z,2.30
2022-09-22T10:26:56.767Z,2.45
2022-09-22T10:28:02.185Z,2.55
2022-09-22T10:29:18.736Z,2.50
2022-09-22T10:30:24.840Z,2.42
2022-09-22T10:31:28.464Z,2.20
2022-09-22T10:32:32.621Z,2.33
2022-09-22T10:33:37.595Z,3.08
2022-09-22T10:35:57.156Z,6.25
2022-09-22T10:37:01.378Z,3.42
2022-09-22T10:38:10.264Z,2.35
2022-09-22T10:39:19.230Z,3.30
2022-09-22T10:40:22.792Z,5.93
2022-09-22T10:41:53.418Z,6.32
2022-09-22T10:43:01.481Z,4.03
2022-09-22T10:44:38.642Z,3.35
2022-09-22T10:45:53.566Z,4.55
2022-09-22T10:47:17.350Z,4.22
2022-09-22T10:48:27.234Z,3.10
2022-09-22T10:49:41.794Z,2.85
2022-09-22T10:50:54.053Z,2.80
2022-09-22T10:52:08.985Z,2.47
2022-09-22T10:53:29.026Z,2.33
2022-09-22T10:55:06.708Z,2.28
2022-09-22T10:56:14.983Z,2.88
2022-09-22T10:57:46.432Z,2.58
2022-09-22T10:59:02.093Z,2.67
2022-09-22T11:00:12.732Z,2.00
2022-09-22T11:01:32.179Z,2.60
2022-09-22T11:03:18.110Z,2.50
2022-09-22T11:04:41.446Z,2.40
2022-09-22T11:06:13.685Z,3.05
2022-09-22T11:08:01.615Z,3.08
2022-09-22T11:09:30.675Z,3.00
2022-09-22T11:10:56.356Z,3.40
2022-09-22T11:12:17.726Z,3.20
2022-09-22T11:13:37.787Z,1.60
2022-09-22T11:14:51.695Z,1.95
2022-09-22T11:16:15.119Z,1.77
2022-09-22T11:17:31.544Z,1.83
2022-09-22T11:18:55.338Z,1.50
2022-09-22T11:20:11.895Z,1.70
2022-09-22T11:21:27.143Z,1.50
2022-09-22T11:22:42.487Z,1.25
2022-09-22T11:23:57.343Z,1.60
2022-09-22T11:25:39.584Z,2.13
2022-09-22T11:26:51.456Z,2.17
2022-09-22T11:28:05.059Z,1.90
2022-09-22T11:29:27.039Z,1.92
2022-09-22T11:30:36.194Z,2.05
2022-09-22T11:31:47.167Z,2.25
2022-09-22T11:33:19.106Z,2.20
2022-09-22T11:34:54.339Z,2.60
2022-09-22T11:36:14.885Z,3.33
2022-09-22T11:37:35.932Z,3.45
2022-09-22T11:39:05.840Z,3.63
2022-09-22T11:40:34.317Z,3.35
2022-09-22T11:41:45.633Z,3.63
2022-09-22T11:42:59.428Z,9.98
2022-09-22T11:44:34.455Z,9.02
2022-09-22T11:46:01.826Z,5.25
2022-09-22T11:47:43.591Z,3.53
2022-09-22T11:50:49.118Z,4.65
2022-09-22T11:52:15.100Z,2.42
2022-09-22T11:53:44.453Z,2.90
2022-09-22T11:55:02.652Z,2.40
2022-09-22T11:56:37.088Z,2.05
2022-09-22T11:57:42.964Z,2.20
2022-09-22T11:58:46.963Z,2.20
2022-09-22T11:59:58.656Z,2.83
2022-09-22T12:01:10.881Z,2.53
2022-09-22T12:02:19.394Z,2.80
2022-09-22T12:03:25.732Z,2.23
2022-09-22T12:04:37.199Z,2.27
2022-09-22T12:05:44.076Z,1.63
2022-09-22T12:06:50.625Z,2.20
2022-09-22T12:07:59.493Z,2.37
2022-09-22T12:09:06.224Z,2.20
2022-09-22T12:10:18.136Z,2.50
2022-09-22T12:11:24.144Z,1.90
2022-09-22T12:12:29.811Z,2.50
2022-09-22T12:13:35.205Z,1.87
2022-09-22T12:14:40.007Z,2.30
2022-09-22T12:15:53.266Z,2.07
2022-09-22T12:17:00.893Z,2.30
2022-09-22T12:18:26.604Z,1.80
2022-09-22T12:19:39.963Z,1.90
2022-09-22T12:20:55.344Z,1.90
2022-09-22T12:22:05.395Z,1.50
2022-09-22T12:23:39.618Z,1.87
2022-09-22T12:24:46.112Z,1.93
2022-09-22T12:25:54.212Z,1.97
2022-09-22T12:26:58.609Z,2.17
2022-09-22T12:28:01.973Z,2.73
2022-09-22T12:29:10.746Z,1.93
2022-09-22T12:30:23.141Z,1.60
2022-09-22T12:31:36.479Z,1.50
2022-09-22T12:32:42.412Z,1.42
2022-09-22T12:33:49.078Z,1.95
2022-09-22T12:34:54.235Z,1.60
2022-09-22T12:35:57.777Z,1.90
2022-09-22T12:37:11.472Z,1.85
2022-09-22T12:38:14.629Z,1.30
2022-09-22T12:39:20.721Z,2.10
2022-09-22T12:40:30.116Z,2.30
2022-09-22T12:41:34.516Z,1.45
2022-09-22T12:42:39.575Z,1.70
2022-09-22T12:43:44.645Z,1.63
2022-09-22T12:44:52.856Z,1.50
2022-09-22T12:45:58.228Z,1.52
2022-09-22T12:47:06.933Z,1.53
2022-09-22T12:48:14.470Z,1.50
2022-09-22T12:49:21.139Z,1.37
2022-09-22T12:50:38.981Z,1.80
2022-09-22T12:51:43.375Z,1.77
2022-09-22T12:53:07.714Z,1.80
2022-09-22T12:54:48.820Z,3.30
2022-09-22T12:55:53.608Z,2.60
2022-09-22T12:56:59.942Z,2.70
2022-09-22T12:58:04.310Z,1.63
2022-09-22T12:59:47.200Z,1.50
2022-09-22T13:00:53.249Z,1.70
2022-09-22T13:02:24.620Z,1.60
2022-09-22T13:03:42.358Z,1.50
2022-09-22T13:05:19.818Z,1.50
2022-09-22T13:07:06.396Z,2.57
2022-09-22T13:08:17.927Z,1.40
2022-09-22T13:09:25.674Z,1.60
2022-09-22T13:11:01.567Z,1.60
2022-09-22T13:12:28.520Z,1.35
2022-09-22T13:13:44.907Z,1.67
2022-09-22T13:15:16.266Z,1.50
2022-09-22T13:16:37.746Z,1.60
2022-09-22T13:17:44.112Z,1.67
2022-09-22T13:19:00.113Z,1.30
2022-09-22T13:20:12.616Z,1.40
2022-09-22T13:21:21.414Z,1.50
2022-09-22T13:22:26.092Z,1.43
2022-09-22T13:23:32.496Z,1.67
2022-09-22T13:24:36.301Z,1.33
2022-09-22T13:26:10.170Z,1.00
2022-09-22T13:27:22.487Z,1.47
2022-09-22T13:28:27.197Z,1.30
2022-09-22T13:29:30.435Z,1.47
2022-09-22T13:30:35.190Z,1.40
2022-09-22T13:31:51.296Z,1.50
2022-09-22T13:32:55.735Z,1.50
2022-09-22T13:34:00.541Z,1.50
2022-09-22T13:35:25.411Z,1.60
2022-09-22T13:36:32.853Z,1.50
2022-09-22T13:37:36.298Z,1.70
2022-09-22T13:38:43.459Z,1.97
2022-09-22T13:39:49.755Z,1.70
2022-09-22T13:41:02.441Z,1.90
2022-09-22T13:42:08.833Z,1.87
2022-09-22T13:43:12.694Z,2.00
2022-09-22T13:44:22.514Z,2.00
2022-09-22T13:45:27.648Z,2.03
2022-09-22T13:46:37.809Z,2.77
2022-09-22T13:47:44.496Z,2.23
2022-09-22T13:48:55.520Z,2.70
2022-09-22T13:50:04.580Z,2.07
2022-09-22T13:51:09.953Z,2.93
2022-09-22T13:52:16.485Z,3.00
2022-09-22T13:53:22.993Z,2.90
2022-09-22T13:54:29.542Z,2.20
2022-09-22T13:55:35.765Z,2.85
2022-09-22T13:56:42.702Z,2.58
2022-09-22T13:57:52.794Z,3.67
2022-09-22T13:59:03.212Z,3.22
2022-09-22T14:00:09.266Z,3.53
2022-09-22T14:01:18.117Z,2.83
2022-09-22T14:02:31.341Z,3.00
2022-09-22T14:03:47.525Z,2.72
2022-09-22T14:04:55.575Z,2.78
2022-09-22T14:06:00.398Z,2.50
2022-09-22T14:07:11.186Z,2.50
2022-09-22T14:08:20.361Z,2.40
2022-09-22T14:09:27.894Z,2.35
2022-09-22T14:10:39.495Z,2.53
2022-09-22T14:11:44.773Z,2.60
2022-09-22T14:12:49.003Z,2.50
2022-09-22T14:14:00.492Z,2.78
2022-09-22T14:15:40.640Z,2.38
2022-09-22T14:16:49.034Z,2.90
2022-09-22T14:17:56.118Z,3.17
2022-09-22T14:19:04.753Z,4.20
2022-09-22T14:20:11.578Z,3.97
2022-09-22T14:21:14.903Z,4.55
2022-09-22T14:22:21.737Z,4.18
2022-09-22T14:23:28.566Z,4.22
2022-09-22T14:24:35.400Z,3.88
2022-09-22T14:25:40.422Z,3.30
2022-09-22T14:26:47.868Z,3.03
2022-09-22T14:27:55.652Z,2.67
2022-09-22T14:29:06.722Z,3.70
2022-09-22T14:30:20.041Z,3.28
2022-09-22T14:31:27.237Z,3.55
2022-09-22T14:32:36.269Z,4.25
2022-09-22T14:35:02.424Z,3.72
2022-09-22T14:36:30.687Z,4.45
2022-09-22T14:38:23.677Z,4.13
2022-09-22T14:39:34.520Z,4.03
2022-09-22T14:40:52.921Z,3.70
2022-09-22T14:42:31.124Z,2.67
2022-09-22T14:43:39.575Z,3.30
2022-09-22T14:44:48.690Z,4.22
2022-09-22T14:46:02.338Z,4.60
2022-09-22T14:47:27.755Z,4.68
2022-09-22T14:48:33.022Z,5.32
2022-09-22T14:49:44.648Z,4.75
2022-09-22T14:50:56.399Z,4.45
2022-09-22T14:52:06.592Z,4.45
2022-09-22T14:53:25.037Z,3.92
2022-09-22T14:54:36.042Z,4.60
2022-09-22T14:55:45.716Z,3.95
2022-09-22T15:00:39.865Z,3.40
2022-09-22T15:03:09.901Z,2.97
2022-09-22T15:04:18.344Z,3.50
2022-09-22T15:05:32.656Z,2.97
2022-09-22T15:07:05.164Z,3.40
2022-09-22T15:08:32.259Z,3.22
2022-09-22T15:09:45.531Z,3.55
2022-09-22T15:11:52.524Z,3.45
2022-09-22T15:13:43.586Z,3.10
2022-09-22T15:17:58.493Z,3.00
2022-09-22T15:20:12.531Z,2.88
2022-09-22T15:21:30.646Z,2.90
2022-09-22T15:32:48.648Z,3.70
2022-09-22T15:33:55.029Z,3.20
2022-09-22T15:35:01.619Z,3.08
2022-09-22T15:36:13.327Z,2.70
2022-09-22T15:37:38.686Z,2.35
2022-09-22T15:40:43.846Z,2.70
2022-09-22T15:42:29.425Z,2.75
2022-09-22T15:44:18.502Z,2.55
2022-09-22T15:46:17.629Z,3.10
2022-09-22T15:50:42.290Z,3.15
2022-09-22T15:52:47.439Z,3.17
2022-09-22T15:54:00.673Z,2.92
2022-09-22T15:55:22.718Z,3.05
2022-09-22T15:57:15.477Z,5.53
2022-09-22T16:00:20.261Z,14.27
2022-09-22T16:02:35.937Z,5.72
2022-09-22T16:17:38.335Z,16.40
2022-09-22T16:20:53.922Z,7.03
2022-09-22T16:22:09.545Z,5.78
2022-09-22T16:23:15.740Z,5.50
2022-09-22T16:24:20.500Z,6.18
2022-09-22T16:25:46.129Z,6.30
2022-09-22T16:27:29.783Z,8.25
2022-09-22T16:28:34.281Z,16.63
2022-09-22T16:29:57.409Z,20.05
2022-09-22T16:31:04.449Z,19.88
2022-09-22T16:33:29.204Z,22.63
2022-09-22T16:34:50.755Z,13.73
2022-09-22T16:36:44.950Z,19.80
2022-09-22T16:38:42.535Z,20.75
2022-09-22T16:39:52.065Z,15.63
2022-09-22T16:42:57.572Z,9.55
2022-09-22T16:48:58.946Z,5.13
2022-09-22T16:50:12.901Z,5.20
2022-09-22T16:50:29.710Z,6.43
2022-09-22T16:51:48.274Z,5.00
2022-09-22T16:53:05.628Z,6.43
2022-09-22T16:54:20.704Z,8.18
2022-09-22T16:55:25.913Z,6.90
2022-09-22T16:56:43.695Z,8.65
2022-09-22T16:58:13.692Z,6.75
2022-09-22T16:59:34.363Z,6.32
2022-09-22T17:01:19.567Z,7.20
2022-09-22T17:04:48.537Z,9.52
2022-09-22T17:07:03.350Z,13.13
2022-09-22T17:08:16.700Z,11.60
2022-09-22T17:09:48.577Z,11.18
2022-09-22T17:13:18.774Z,16.40
2022-09-22T17:15:20.947Z,9.95
2022-09-22T17:25:13.951Z,10.60
2022-09-22T17:27:44.198Z,8.55
2022-09-22T17:37:10.345Z,52.35
2022-09-22T17:42:49.863Z,16.08
2022-09-22T17:44:53.878Z,18.35
2022-09-22T17:50:44.785Z,28.10
2022-09-22T17:58:48.306Z,22.75
2022-09-22T18:00:24.551Z,19.25
2022-09-22T18:03:45.080Z,31.25
2022-09-22T19:09:52.761Z,29.40
2022-09-22T19:21:26.370Z,26.27
2022-09-22T21:36:28.138Z,14.98
2022-09-22T23:29:45.231Z,17.45
